NCAR-RAP Real-Time Weather Data

Output produced by METARs form (14 June 2021  06:17 UTC)
found at http://weather.rap.ucar.edu/surface/
 
KGRB 140553Z AUTO 08007KT 10SM FEW018 BKN090 BKN110 17/14 A2994 RMK AO2 LTG DSNT E SLP134 60001 T01720139 10294 20167 403110150 53003 $
KGRB 140453Z AUTO 04017G23KT 10SM FEW020 SCT100 17/13 A2994 RMK AO2 PK WND 05029/0405 RAE08 SLP136 P0000 T01720133 $
KGRB 140353Z 07021G36KT 10SM RA BKN100 BKN120 17/13 A2990 RMK AO2 PK WND 04039/0306 PRESFR SLP123 P0000 T01720128 $
KGRB 140253Z 03026G42KT 8SM -RA FEW060 FEW070 OVC090 18/14 A2993 RMK AO2 PK WND 03042/0246 WSHFT 0222 RAB41 SLP131 P0001 60001 T01830139 53016 $
KGRB 140242Z 02026G38KT 8SM -RA FEW065 OVC095 20/14 A2994 RMK AO2 PK WND 01038/0242 WSHFT 0222 LTG DSNT NE RAB41 PRESRR P0000 T02000144 $
KGRB 140153Z 20005KT 10SM FEW120 25/12 A2983 RMK AO2 SLP099 T02500122 $
KGRB 140053Z 23003KT 10SM CLR 28/12 A2987 RMK AO2 SLP110 T02780122 $
KGRB 132353Z 27004KT 10SM FEW110 29/12 A2988 RMK AO2 SLP115 T02890117 10311 20289 56017 $
KGRB 132253Z AUTO 29006KT 10SM FEW120 29/09 A2989 RMK AO2 SLP118 T02940094 $
KGRB 132153Z AUTO 23005KT 10SM CLR 30/09 A2990 RMK AO2 SLP123 T03000094 $
KGRB 132053Z AUTO 28008KT 10SM CLR 31/09 A2993 RMK AO2 SLP132 T03060094 58016 $
KGRB 131953Z AUTO 31007G15KT 10SM CLR 31/09 A2995 RMK AO2 SLP138 T03060089 $
KGRB 131853Z 34009KT 10SM CLR 31/09 A2996 RMK AO2 SLP142 T03060094 $
KGRB 131753Z 30008G17KT 10SM CLR 29/09 A2998 RMK AO2 SLP148 T02940089 10300 20189 58009 $
KGRB 131653Z 33013G20KT 10SM CLR 29/09 A2999 RMK AO2 SLP153 T02940089 $
KGRB 131553Z VRB06KT 10SM CLR 28/08 A3000 RMK AO2 SLP154 T02830083 $
KGRB 131453Z 32005KT 10SM CLR 27/11 A3001 RMK AO2 SLP157 T02720106 51007 $
KGRB 131353Z 32006KT 10SM CLR 25/12 A3000 RMK AO2 SLP157 T02500122 $
KGRB 131253Z 30008KT 10SM CLR 22/12 A2999 RMK AO2 SLP153 T02220122
KGRB 131153Z 29008KT 10SM CLR 19/13 A2998 RMK AO2 SLP150 T01890133 10189 20150 51010